createdAt,value
2019-03-16T00:02:20.424Z,26.42
2019-03-16T00:04:50.351Z,21.17
2019-03-16T00:07:32.447Z,22.70
2019-03-16T00:09:51.914Z,17.60
2019-03-16T00:12:21.907Z,24.67
2019-03-16T00:14:51.834Z,25.65
2019-03-16T00:17:25.297Z,26.55
2019-03-16T00:20:02.745Z,23.75
2019-03-16T00:22:34.197Z,16.45
2019-03-16T00:25:05.672Z,31.00
2019-03-16T00:27:43.295Z,20.62
2019-03-16T00:32:45.229Z,30.12
2019-03-16T00:35:15.369Z,29.92
2019-03-16T00:37:45.428Z,32.33
2019-03-16T00:40:16.936Z,29.00
2019-03-16T00:42:46.985Z,30.82
2019-03-16T00:45:18.719Z,28.70
2019-03-16T00:47:53.478Z,25.43
2019-03-16T00:50:20.860Z,25.95
2019-03-16T00:52:50.755Z,25.17
2019-03-16T00:55:22.374Z,29.70
2019-03-16T00:58:13.311Z,24.02
2019-03-16T01:00:59.485Z,24.55
2019-03-16T01:03:30.745Z,21.80
2019-03-16T01:06:00.760Z,25.68
2019-03-16T01:08:38.953Z,20.05
2019-03-16T01:11:10.362Z,22.67
2019-03-16T01:26:28.296Z,19.00
2019-03-16T01:57:50.118Z,13.95
2019-03-16T02:22:13.631Z,15.83
2019-03-16T02:24:45.208Z,9.80
2019-03-16T02:27:18.558Z,11.65
2019-03-16T02:29:53.331Z,16.85
2019-03-16T02:32:26.536Z,15.70
2019-03-16T02:35:06.120Z,11.18
2019-03-16T02:37:39.760Z,13.62
2019-03-16T02:40:23.259Z,17.57
2019-03-16T02:42:59.300Z,14.15
2019-03-16T02:45:34.117Z,13.38
2019-03-16T02:48:12.111Z,16.07
2019-03-16T02:50:43.751Z,11.97
2019-03-16T02:53:19.465Z,23.47
2019-03-16T02:55:49.353Z,14.43
2019-03-16T02:58:28.247Z,17.60
2019-03-16T03:01:02.243Z,13.43
2019-03-16T03:03:36.813Z,16.27
2019-03-16T03:06:10.984Z,18.55
2019-03-16T03:08:46.231Z,18.07
2019-03-16T03:11:17.607Z,15.25
2019-03-16T03:13:47.452Z,14.93
2019-03-16T03:16:17.768Z,19.25
2019-03-16T03:18:49.549Z,14.18
2019-03-16T03:21:19.348Z,18.82
2019-03-16T03:23:49.216Z,22.65
2019-03-16T03:26:19.053Z,17.40
2019-03-16T03:28:48.902Z,10.40
2019-03-16T03:31:18.813Z,23.05
2019-03-16T03:34:00.491Z,17.30
2019-03-16T03:36:20.185Z,18.12
2019-03-16T03:38:50.001Z,18.82
2019-03-16T03:41:20.008Z,24.02
2019-03-16T03:43:49.862Z,20.30
2019-03-16T03:46:19.837Z,14.33
2019-03-16T03:48:49.680Z,21.10
2019-03-16T03:51:19.486Z,19.70
2019-03-16T03:53:49.330Z,23.38
2019-03-16T03:56:19.247Z,14.98
2019-03-16T03:58:49.160Z,23.47
2019-03-16T04:01:18.986Z,20.30
2019-03-16T04:03:48.759Z,22.10
2019-03-16T04:06:18.606Z,20.27
2019-03-16T04:08:48.427Z,22.40
2019-03-16T04:11:18.333Z,21.02
2019-03-16T04:13:48.140Z,20.12
2019-03-16T04:16:17.953Z,19.73
2019-03-16T04:18:51.468Z,21.65
2019-03-16T04:21:19.428Z,20.17
2019-03-16T04:23:49.233Z,18.23
2019-03-16T04:26:19.003Z,23.30
2019-03-16T04:28:48.880Z,22.05
2019-03-16T04:31:18.608Z,27.87
2019-03-16T04:33:48.480Z,21.85
2019-03-16T04:36:18.389Z,24.82
2019-03-16T04:38:48.200Z,21.97
2019-03-16T04:41:18.007Z,20.17
2019-03-16T04:43:47.957Z,22.45
2019-03-16T04:46:17.985Z,23.77
2019-03-16T04:48:49.011Z,24.55
2019-03-16T04:51:18.823Z,19.35
2019-03-16T04:53:48.639Z,20.90
2019-03-16T04:56:18.368Z,24.85
2019-03-16T04:58:48.166Z,23.65
2019-03-16T05:01:17.866Z,34.30
2019-03-16T05:03:47.687Z,33.75
2019-03-16T05:06:17.417Z,26.12
2019-03-16T05:08:47.137Z,29.65
2019-03-16T05:11:16.923Z,38.75
2019-03-16T05:13:47.250Z,39.08
2019-03-16T05:16:16.887Z,34.15
2019-03-16T05:18:46.740Z,31.65
2019-03-16T05:21:16.656Z,32.65
2019-03-16T05:23:46.377Z,27.77
2019-03-16T05:26:16.166Z,26.82
2019-03-16T05:28:45.789Z,31.62
2019-03-16T05:31:15.994Z,28.60
2019-03-16T05:33:45.728Z,28.00
2019-03-16T05:36:15.526Z,27.85
2019-03-16T05:38:45.259Z,30.27
2019-03-16T05:41:15.111Z,29.50
2019-03-16T05:43:44.917Z,31.93
2019-03-16T05:46:14.643Z,30.43
2019-03-16T05:48:44.445Z,33.05
2019-03-16T05:51:14.264Z,27.27
2019-03-16T05:53:44.051Z,32.67
2019-03-16T05:56:13.907Z,33.92
2019-03-16T05:58:43.716Z,36.50
2019-03-16T06:01:13.457Z,35.40
2019-03-16T06:03:43.208Z,36.63
2019-03-16T06:06:12.943Z,32.93
2019-03-16T06:08:42.760Z,31.97
2019-03-16T06:11:12.593Z,31.65
2019-03-16T06:13:42.353Z,26.23
2019-03-16T06:16:12.136Z,26.75
2019-03-16T06:18:41.942Z,23.40
2019-03-16T06:21:12.893Z,25.10
2019-03-16T06:23:42.667Z,23.65
2019-03-16T06:26:38.261Z,17.80
2019-03-16T06:29:06.475Z,18.55
2019-03-16T06:31:36.298Z,16.00
2019-03-16T06:34:08.247Z,25.92
2019-03-16T06:36:37.889Z,28.77
2019-03-16T06:39:08.508Z,20.20
2019-03-16T06:41:38.277Z,21.62
2019-03-16T06:44:08.137Z,28.35
2019-03-16T06:46:42.822Z,27.48
2019-03-16T06:52:25.396Z,26.87
2019-03-16T06:55:03.456Z,30.17
2019-03-16T07:07:02.874Z,30.08
2019-03-16T07:09:45.369Z,25.62
2019-03-16T07:12:38.840Z,26.02
2019-03-16T07:15:19.535Z,24.05
2019-03-16T07:18:19.454Z,31.93
2019-03-16T07:27:09.661Z,29.63
2019-03-16T07:29:42.990Z,35.58
2019-03-16T07:32:20.487Z,33.38
2019-03-16T07:37:26.497Z,33.08
2019-03-16T07:39:56.189Z,33.23
2019-03-16T07:42:26.137Z,36.58
2019-03-16T07:45:07.471Z,34.73
2019-03-16T07:47:27.517Z,30.23
2019-03-16T07:49:57.327Z,28.23
2019-03-16T07:52:27.174Z,23.92
2019-03-16T07:54:56.991Z,26.55
2019-03-16T07:57:39.297Z,28.52
2019-03-16T07:59:58.469Z,32.10
2019-03-16T08:02:28.330Z,30.92
2019-03-16T08:04:58.181Z,26.23
2019-03-16T08:07:28.205Z,30.37
2019-03-16T08:09:58.099Z,31.20
2019-03-16T08:12:32.459Z,23.73
2019-03-16T08:15:03.959Z,21.68
2019-03-16T08:17:33.821Z,27.52
2019-03-16T08:20:07.125Z,24.32
2019-03-16T08:22:37.117Z,16.15
2019-03-16T08:25:08.168Z,17.02
2019-03-16T08:27:38.138Z,22.30
2019-03-16T08:30:11.371Z,16.17
2019-03-16T08:32:43.769Z,18.92
2019-03-16T08:35:13.852Z,17.05
2019-03-16T08:37:43.898Z,19.48
2019-03-16T08:40:23.296Z,16.17
2019-03-16T08:42:57.379Z,21.00
2019-03-16T08:45:27.094Z,15.93
2019-03-16T08:48:03.224Z,12.75
2019-03-16T08:50:32.954Z,19.32
2019-03-16T08:53:22.901Z,22.32
2019-03-16T08:56:10.102Z,15.23
2019-03-16T08:59:01.542Z,12.82
2019-03-16T09:11:33.946Z,12.93
2019-03-16T09:17:53.910Z,18.20
2019-03-16T10:13:53.650Z,8.45
2019-03-16T10:16:23.377Z,8.30
2019-03-16T10:18:53.262Z,7.95
2019-03-16T10:21:23.970Z,7.97
2019-03-16T10:23:53.704Z,9.50
2019-03-16T10:26:23.539Z,9.95
2019-03-16T10:28:53.373Z,9.08
2019-03-16T10:31:23.159Z,8.35
2019-03-16T10:37:21.291Z,8.63
2019-03-16T10:39:54.100Z,9.53
2019-03-16T10:42:31.423Z,10.98
2019-03-16T10:45:13.662Z,9.43
2019-03-16T10:47:44.941Z,14.23
2019-03-16T10:50:15.469Z,13.00
2019-03-16T10:52:46.815Z,5.83
2019-03-16T10:55:28.717Z,9.93
2019-03-16T10:58:00.052Z,8.45
2019-03-16T11:00:33.632Z,14.20
2019-03-16T11:03:04.331Z,11.35
2019-03-16T11:05:38.082Z,9.68
2019-03-16T11:08:09.159Z,13.08
2019-03-16T11:10:43.264Z,8.50
2019-03-16T11:13:14.268Z,8.50
2019-03-16T11:18:22.765Z,9.30
2019-03-16T11:20:58.847Z,11.05
2019-03-16T11:23:30.424Z,8.48
2019-03-16T11:26:00.465Z,11.18
2019-03-16T11:28:51.687Z,9.85
2019-03-16T11:31:11.677Z,9.18
2019-03-16T11:33:50.496Z,7.40
2019-03-16T11:36:58.206Z,6.60
2019-03-16T11:39:32.067Z,9.98
2019-03-16T11:42:10.910Z,6.53
2019-03-16T11:44:47.472Z,7.40
2019-03-16T11:49:45.360Z,6.53
2019-03-16T11:52:17.728Z,7.22
2019-03-16T11:54:52.200Z,7.62
2019-03-16T11:57:28.015Z,4.42
2019-03-16T12:00:07.704Z,7.37
2019-03-16T12:02:43.073Z,6.35
2019-03-16T12:05:21.040Z,9.38
2019-03-16T12:08:07.643Z,7.35
2019-03-16T12:10:57.848Z,7.03
2019-03-16T12:13:43.782Z,8.28
2019-03-16T12:16:18.518Z,7.58
2019-03-16T12:19:06.766Z,6.87
2019-03-16T12:21:24.500Z,6.55
2019-03-16T12:24:04.062Z,4.80
2019-03-16T12:26:34.143Z,5.70
2019-03-16T12:29:04.133Z,4.53
2019-03-16T12:31:35.537Z,3.67
2019-03-16T12:34:14.599Z,4.85
2019-03-16T12:36:45.614Z,4.12
2019-03-16T12:39:25.922Z,5.28
2019-03-16T12:42:01.920Z,4.47
2019-03-16T12:44:30.980Z,4.53
2019-03-16T12:47:03.285Z,4.80
2019-03-16T12:49:33.169Z,3.83
2019-03-16T12:52:03.227Z,4.22
2019-03-16T12:54:33.039Z,4.12
2019-03-16T12:57:02.923Z,4.03
2019-03-16T12:59:48.057Z,2.42
2019-03-16T13:02:22.679Z,2.17
2019-03-16T13:04:54.382Z,4.95
2019-03-16T13:07:27.638Z,6.92
2019-03-16T13:10:02.022Z,3.33
2019-03-16T13:12:42.368Z,3.25
2019-03-16T13:15:18.502Z,4.85
2019-03-16T13:17:47.772Z,4.22
2019-03-16T13:20:26.713Z,3.83
2019-03-16T13:23:05.269Z,5.05
2019-03-16T13:25:43.095Z,4.35
2019-03-16T13:28:15.673Z,5.83
2019-03-16T13:30:45.664Z,5.55
2019-03-16T13:33:21.489Z,3.70
2019-03-16T13:35:52.477Z,3.25
2019-03-16T13:38:22.992Z,3.05
2019-03-16T13:44:14.804Z,7.80
2019-03-16T13:46:47.366Z,4.15
2019-03-16T13:49:23.362Z,4.05
2019-03-16T13:51:53.364Z,4.28
2019-03-16T13:54:23.391Z,6.85
2019-03-16T13:56:53.245Z,7.37
2019-03-16T13:59:23.330Z,5.25
2019-03-16T14:01:53.189Z,4.58
2019-03-16T14:04:24.324Z,9.68
2019-03-16T14:07:08.131Z,6.28
2019-03-16T14:09:38.120Z,7.87
2019-03-16T14:12:09.774Z,5.80
2019-03-16T14:14:41.277Z,8.63
2019-03-16T14:17:14.599Z,7.53
2019-03-16T14:19:47.475Z,8.30
2019-03-16T14:22:18.869Z,8.53
2019-03-16T14:24:48.800Z,6.75
2019-03-16T14:27:22.699Z,7.10
2019-03-16T14:29:54.313Z,3.92
2019-03-16T14:32:24.206Z,7.83
2019-03-16T14:34:54.351Z,6.33
2019-03-16T14:37:27.660Z,9.35
2019-03-16T14:40:14.980Z,7.40
2019-03-16T14:42:42.525Z,7.83
2019-03-16T14:45:36.881Z,10.38
2019-03-16T14:48:09.304Z,6.10
2019-03-16T14:50:44.784Z,9.85
2019-03-16T14:53:18.422Z,7.42
2019-03-16T14:55:48.331Z,5.33
2019-03-16T14:58:25.476Z,9.93
2019-03-16T15:01:07.990Z,8.23
2019-03-16T15:12:39.082Z,9.33
2019-03-16T15:15:27.104Z,11.95
2019-03-16T15:17:52.843Z,9.88
2019-03-16T15:26:47.331Z,9.38
2019-03-16T15:29:26.583Z,7.17
2019-03-16T15:31:57.860Z,7.47
2019-03-16T15:34:32.998Z,8.30
2019-03-16T15:43:05.130Z,11.90
2019-03-16T15:45:39.383Z,14.93
2019-03-16T15:48:32.381Z,15.68
2019-03-16T15:51:06.773Z,10.72
2019-03-16T15:54:13.295Z,10.60
2019-03-16T15:56:45.653Z,15.35
2019-03-16T16:14:06.682Z,16.93
2019-03-16T16:19:34.246Z,16.05
2019-03-16T16:22:08.743Z,15.30
2019-03-16T16:24:43.490Z,9.85
2019-03-16T16:27:13.621Z,15.40
2019-03-16T16:29:51.910Z,11.30
2019-03-16T16:32:36.357Z,11.88
2019-03-16T16:35:12.166Z,10.43
2019-03-16T16:40:16.339Z,12.47
2019-03-16T16:42:47.692Z,10.18
2019-03-16T16:45:18.970Z,10.48
2019-03-16T16:47:48.957Z,11.70
2019-03-16T16:50:24.532Z,8.60
2019-03-16T16:52:55.852Z,10.65
2019-03-16T16:55:32.008Z,10.65
2019-03-16T16:58:01.947Z,12.35
2019-03-16T17:00:33.275Z,8.53
2019-03-16T17:05:58.957Z,15.80
2019-03-16T17:08:36.663Z,13.55
2019-03-16T17:16:54.675Z,15.05
2019-03-16T17:19:36.003Z,10.82
2019-03-16T19:27:19.376Z,10.38
2019-03-16T20:04:50.774Z,7.92
2019-03-16T20:07:22.936Z,11.35
2019-03-16T20:09:52.869Z,12.82
2019-03-16T20:12:22.742Z,14.05
2019-03-16T20:14:53.910Z,7.75
2019-03-16T20:17:25.128Z,11.43
2019-03-16T20:19:54.999Z,10.35
2019-03-16T20:22:24.826Z,12.58
2019-03-16T20:24:54.789Z,11.25
2019-03-16T20:27:26.574Z,13.62
2019-03-16T20:29:56.454Z,11.93
2019-03-16T20:32:26.339Z,10.68
2019-03-16T20:34:56.228Z,11.18
2019-03-16T20:37:26.196Z,11.50
2019-03-16T20:39:56.085Z,13.05
2019-03-16T20:42:25.941Z,16.62
2019-03-16T20:44:55.843Z,12.85
2019-03-16T20:47:27.243Z,10.03
2019-03-16T20:49:57.079Z,15.32
2019-03-16T20:52:27.050Z,13.43
2019-03-16T20:54:57.005Z,14.55
2019-03-16T20:57:27.043Z,13.50
2019-03-16T20:59:56.988Z,14.05
2019-03-16T21:02:26.867Z,13.40
2019-03-16T21:04:56.706Z,11.18
2019-03-16T21:07:26.551Z,12.53
2019-03-16T21:09:56.379Z,14.20
2019-03-16T21:12:26.209Z,14.38
2019-03-16T21:14:56.148Z,14.00
2019-03-16T21:17:26.718Z,16.62
2019-03-16T21:19:56.689Z,14.87
2019-03-16T21:22:35.508Z,16.60
2019-03-16T21:24:58.016Z,15.38
2019-03-16T21:27:27.864Z,16.40
2019-03-16T21:29:57.679Z,20.30
2019-03-16T21:32:27.628Z,18.70
2019-03-16T21:34:57.469Z,15.28
2019-03-16T21:37:27.539Z,22.50
2019-03-16T21:39:57.842Z,19.87
2019-03-16T21:42:27.764Z,17.67
2019-03-16T21:44:57.775Z,16.10
2019-03-16T21:47:27.580Z,20.40
2019-03-16T21:49:57.935Z,21.30
2019-03-16T21:52:27.771Z,18.65
2019-03-16T21:55:00.624Z,20.10
2019-03-16T21:57:30.643Z,21.68
2019-03-16T22:00:00.677Z,19.57
2019-03-16T22:02:30.494Z,23.90
2019-03-16T22:05:03.327Z,18.30
2019-03-16T22:07:33.136Z,18.85
2019-03-16T22:10:04.565Z,20.17
2019-03-16T22:12:37.176Z,18.73
2019-03-16T22:15:16.007Z,21.20
2019-03-16T22:20:45.467Z,16.05
2019-03-16T22:23:16.952Z,20.55
2019-03-16T22:26:00.692Z,27.40
2019-03-16T22:28:35.386Z,19.23
2019-03-16T22:31:20.416Z,19.20
2019-03-16T22:33:54.721Z,16.73
2019-03-16T22:36:36.021Z,15.23
2019-03-16T22:39:10.112Z,21.85
2019-03-16T22:41:41.699Z,17.32
2019-03-16T22:44:13.227Z,21.42
2019-03-16T22:46:44.522Z,20.55
2019-03-16T22:49:25.243Z,16.42
2019-03-16T22:54:55.934Z,13.30
2019-03-16T22:57:43.870Z,18.25
2019-03-16T23:00:49.906Z,16.87
2019-03-16T23:03:27.694Z,18.57
2019-03-16T23:05:58.267Z,11.03
2019-03-16T23:08:29.741Z,14.65
2019-03-16T23:11:08.634Z,8.73
2019-03-16T23:13:59.311Z,13.03
2019-03-16T23:16:41.706Z,11.28
2019-03-16T23:19:19.981Z,12.45
2019-03-16T23:21:52.880Z,12.13
2019-03-16T23:24:25.618Z,10.95
2019-03-16T23:27:01.872Z,9.95
2019-03-16T23:29:38.498Z,8.93
2019-03-16T23:32:18.120Z,9.10
2019-03-16T23:34:52.017Z,8.70
2019-03-16T23:37:27.180Z,11.93
2019-03-16T23:40:01.450Z,9.75
2019-03-16T23:43:02.606Z,10.58
2019-03-16T23:45:35.052Z,10.53
2019-03-16T23:48:06.267Z,9.40
2019-03-16T23:50:45.956Z,15.30
2019-03-16T23:53:16.357Z,11.03
2019-03-16T23:55:47.164Z,10.03
2019-03-16T23:58:19.398Z,7.40
